Terminal Aerodrome Forecast
Issued by NWS Chicago, IL

Home | Current Version | Previous Version | Text Only | Print | Product List | Glossary Off
Versions: 1 2 3 4 5 6 7 8 9 10 11 12 13 14 15 16 17 18 19 20 21 22 23 24 25 26 27

669
FTUS43 KLOT 260259 AAA
TAFRFD
TAF AMD
KRFD 260259Z 2603/2624 07009KT 5SM -SHRA BR OVC005
     FM260400 09009KT 2SM -RADZ BR OVC003
     FM261800 VRB02KT 3SM BR VCSH BKN006 OVC010
     FM262000 31005KT 5SM BR SCT009 OVC020=

USA.gov is the U.S. government's official web portal to all federal, state and local government web resources and services.